sensor_id;sensor_type;location;lat;lon;timestamp;P1;durP1;ratioP1;P2;durP2;ratioP2
20036;SDS011;10179;42.640;23.312;2023-02-28T00:00:24;18.00;;;8.45;;
20036;SDS011;10179;42.640;23.312;2023-02-28T00:02:50;16.13;;;7.63;;
20036;SDS011;10179;42.640;23.312;2023-02-28T00:05:16;10.15;;;5.03;;
20036;SDS011;10179;42.640;23.312;2023-02-28T00:07:43;9.82;;;5.30;;
20036;SDS011;10179;42.640;23.312;2023-02-28T00:10:10;10.18;;;5.60;;
20036;SDS011;10179;42.640;23.312;2023-02-28T00:12:40;14.23;;;6.50;;
20036;SDS011;10179;42.640;23.312;2023-02-28T00:15:08;10.10;;;5.55;;
20036;SDS011;10179;42.640;23.312;2023-02-28T00:17:35;10.02;;;5.82;;
20036;SDS011;10179;42.640;23.312;2023-02-28T00:20:01;12.30;;;5.65;;
20036;SDS011;10179;42.640;23.312;2023-02-28T00:22:40;10.00;;;5.75;;
20036;SDS011;10179;42.640;23.312;2023-02-28T00:25:11;10.68;;;6.05;;
20036;SDS011;10179;42.640;23.312;2023-02-28T00:27:38;11.88;;;5.47;;
20036;SDS011;10179;42.640;23.312;2023-02-28T00:30:05;10.60;;;5.70;;
20036;SDS011;10179;42.640;23.312;2023-02-28T00:32:32;14.57;;;6.38;;
20036;SDS011;10179;42.640;23.312;2023-02-28T00:34:59;11.70;;;5.50;;
20036;SDS011;10179;42.640;23.312;2023-02-28T00:37:25;9.32;;;5.38;;
20036;SDS011;10179;42.640;23.312;2023-02-28T00:39:50;13.20;;;6.30;;
20036;SDS011;10179;42.640;23.312;2023-02-28T00:42:15;10.98;;;6.15;;
20036;SDS011;10179;42.640;23.312;2023-02-28T00:44:41;13.82;;;6.35;;
20036;SDS011;10179;42.640;23.312;2023-02-28T00:47:07;13.75;;;6.32;;
20036;SDS011;10179;42.640;23.312;2023-02-28T00:49:32;10.88;;;6.38;;
20036;SDS011;10179;42.640;23.312;2023-02-28T00:51:58;10.63;;;6.18;;
20036;SDS011;10179;42.640;23.312;2023-02-28T00:54:23;13.05;;;6.75;;
20036;SDS011;10179;42.640;23.312;2023-02-28T00:56:49;11.35;;;7.05;;
20036;SDS011;10179;42.640;23.312;2023-02-28T00:59:15;18.88;;;7.65;;
20036;SDS011;10179;42.640;23.312;2023-02-28T01:01:42;18.13;;;8.07;;
20036;SDS011;10179;42.640;23.312;2023-02-28T01:04:09;13.20;;;7.03;;
20036;SDS011;10179;42.640;23.312;2023-02-28T01:06:34;16.48;;;8.13;;
20036;SDS011;10179;42.640;23.312;2023-02-28T01:09:01;15.52;;;8.65;;
20036;SDS011;10179;42.640;23.312;2023-02-28T01:11:27;18.83;;;8.60;;
20036;SDS011;10179;42.640;23.312;2023-02-28T01:13:53;17.60;;;8.60;;
20036;SDS011;10179;42.640;23.312;2023-02-28T01:16:18;22.10;;;9.93;;
20036;SDS011;10179;42.640;23.312;2023-02-28T01:18:44;18.75;;;9.50;;
20036;SDS011;10179;42.640;23.312;2023-02-28T01:21:11;19.77;;;9.93;;
20036;SDS011;10179;42.640;23.312;2023-02-28T01:23:39;23.98;;;10.30;;
20036;SDS011;10179;42.640;23.312;2023-02-28T01:26:06;22.42;;;10.80;;
20036;SDS011;10179;42.640;23.312;2023-02-28T01:28:41;24.63;;;10.93;;
20036;SDS011;10179;42.640;23.312;2023-02-28T01:31:07;26.40;;;11.90;;
20036;SDS011;10179;42.640;23.312;2023-02-28T01:33:33;21.25;;;11.05;;
20036;SDS011;10179;42.640;23.312;2023-02-28T01:36:00;24.98;;;11.63;;
20036;SDS011;10179;42.640;23.312;2023-02-28T01:38:39;26.25;;;12.45;;
20036;SDS011;10179;42.640;23.312;2023-02-28T01:41:06;29.35;;;12.65;;
20036;SDS011;10179;42.640;23.312;2023-02-28T01:46:10;25.77;;;11.88;;
20036;SDS011;10179;42.640;23.312;2023-02-28T01:48:47;23.60;;;12.68;;
20036;SDS011;10179;42.640;23.312;2023-02-28T01:51:37;25.27;;;12.10;;
20036;SDS011;10179;42.640;23.312;2023-02-28T01:54:11;33.45;;;14.40;;
20036;SDS011;10179;42.640;23.312;2023-02-28T01:56:45;26.17;;;12.82;;
20036;SDS011;10179;42.640;23.312;2023-02-28T01:59:17;29.85;;;13.68;;
20036;SDS011;10179;42.640;23.312;2023-02-28T02:01:50;28.45;;;13.57;;
20036;SDS011;10179;42.640;23.312;2023-02-28T02:04:16;34.60;;;13.43;;
20036;SDS011;10179;42.640;23.312;2023-02-28T02:06:43;21.95;;;12.15;;
20036;SDS011;10179;42.640;23.312;2023-02-28T02:09:11;33.08;;;13.55;;
20036;SDS011;10179;42.640;23.312;2023-02-28T02:11:37;48.58;;;17.15;;
20036;SDS011;10179;42.640;23.312;2023-02-28T02:14:48;79.90;;;18.02;;
20036;SDS011;10179;42.640;23.312;2023-02-28T02:30:51;237.93;;;26.50;;
20036;SDS011;10179;42.640;23.312;2023-02-28T02:36:25;191.98;;;26.40;;
20036;SDS011;10179;42.640;23.312;2023-02-28T02:41:35;195.93;;;30.30;;
20036;SDS011;10179;42.640;23.312;2023-02-28T02:44:07;215.70;;;28.02;;
20036;SDS011;10179;42.640;23.312;2023-02-28T02:46:37;326.17;;;32.55;;
20036;SDS011;10179;42.640;23.312;2023-02-28T02:49:08;121.22;;;20.95;;
20036;SDS011;10179;42.640;23.312;2023-02-28T02:51:37;373.02;;;36.38;;
20036;SDS011;10179;42.640;23.312;2023-02-28T02:54:08;234.38;;;28.95;;
20036;SDS011;10179;42.640;23.312;2023-02-28T02:56:36;239.82;;;29.33;;
20036;SDS011;10179;42.640;23.312;2023-02-28T02:59:06;149.68;;;25.35;;
20036;SDS011;10179;42.640;23.312;2023-02-28T03:01:35;488.77;;;44.15;;
20036;SDS011;10179;42.640;23.312;2023-02-28T03:04:03;259.77;;;28.33;;
20036;SDS011;10179;42.640;23.312;2023-02-28T03:06:43;359.83;;;34.70;;
20036;SDS011;10179;42.640;23.312;2023-02-28T03:09:09;140.05;;;23.02;;
20036;SDS011;10179;42.640;23.312;2023-02-28T03:11:35;198.30;;;26.25;;
20036;SDS011;10179;42.640;23.312;2023-02-28T03:17:00;175.25;;;20.27;;
20036;SDS011;10179;42.640;23.312;2023-02-28T03:19:43;189.05;;;24.27;;
20036;SDS011;10179;42.640;23.312;2023-02-28T03:30:10;124.35;;;22.80;;
20036;SDS011;10179;42.640;23.312;2023-02-28T03:35:24;185.48;;;25.20;;
20036;SDS011;10179;42.640;23.312;2023-02-28T03:38:05;77.55;;;22.30;;
20036;SDS011;10179;42.640;23.312;2023-02-28T03:40:39;83.93;;;20.02;;
20036;SDS011;10179;42.640;23.312;2023-02-28T03:43:12;148.45;;;25.40;;
20036;SDS011;10179;42.640;23.312;2023-02-28T03:50:41;249.13;;;29.77;;
20036;SDS011;10179;42.640;23.312;2023-02-28T03:53:10;107.78;;;21.45;;
20036;SDS011;10179;42.640;23.312;2023-02-28T03:55:45;53.05;;;18.20;;
20036;SDS011;10179;42.640;23.312;2023-02-28T04:01:15;42.97;;;16.10;;
20036;SDS011;10179;42.640;23.312;2023-02-28T04:06:30;48.35;;;14.80;;
20036;SDS011;10179;42.640;23.312;2023-02-28T04:08:57;38.33;;;14.82;;
20036;SDS011;10179;42.640;23.312;2023-02-28T04:11:23;40.13;;;14.52;;
20036;SDS011;10179;42.640;23.312;2023-02-28T04:13:54;45.15;;;15.73;;
20036;SDS011;10179;42.640;23.312;2023-02-28T04:16:20;55.55;;;13.13;;
20036;SDS011;10179;42.640;23.312;2023-02-28T04:18:45;74.80;;;15.05;;
20036;SDS011;10179;42.640;23.312;2023-02-28T04:21:11;89.43;;;15.65;;
20036;SDS011;10179;42.640;23.312;2023-02-28T04:23:37;38.33;;;13.25;;
20036;SDS011;10179;42.640;23.312;2023-02-28T04:26:03;37.30;;;13.35;;
20036;SDS011;10179;42.640;23.312;2023-02-28T04:28:29;37.50;;;13.32;;
20036;SDS011;10179;42.640;23.312;2023-02-28T04:30:55;43.38;;;14.23;;
20036;SDS011;10179;42.640;23.312;2023-02-28T04:33:25;39.65;;;13.55;;
20036;SDS011;10179;42.640;23.312;2023-02-28T04:35:58;51.90;;;13.43;;
20036;SDS011;10179;42.640;23.312;2023-02-28T04:38:28;34.95;;;13.15;;
20036;SDS011;10179;42.640;23.312;2023-02-28T04:40:56;89.03;;;17.33;;
20036;SDS011;10179;42.640;23.312;2023-02-28T04:43:22;70.13;;;15.98;;
20036;SDS011;10179;42.640;23.312;2023-02-28T04:45:48;108.45;;;19.40;;
20036;SDS011;10179;42.640;23.312;2023-02-28T04:48:13;70.10;;;16.95;;
20036;SDS011;10179;42.640;23.312;2023-02-28T04:50:38;89.95;;;26.17;;
20036;SDS011;10179;42.640;23.312;2023-02-28T04:53:04;74.78;;;19.27;;
20036;SDS011;10179;42.640;23.312;2023-02-28T04:55:29;54.63;;;17.15;;
20036;SDS011;10179;42.640;23.312;2023-02-28T04:57:55;70.20;;;16.08;;
20036;SDS011;10179;42.640;23.312;2023-02-28T05:00:20;48.60;;;14.95;;
20036;SDS011;10179;42.640;23.312;2023-02-28T05:02:46;72.15;;;16.63;;
20036;SDS011;10179;42.640;23.312;2023-02-28T05:05:11;56.50;;;14.63;;
20036;SDS011;10179;42.640;23.312;2023-02-28T05:07:43;63.72;;;16.63;;
20036;SDS011;10179;42.640;23.312;2023-02-28T05:10:09;41.00;;;15.40;;
20036;SDS011;10179;42.640;23.312;2023-02-28T05:12:35;42.08;;;15.55;;
20036;SDS011;10179;42.640;23.312;2023-02-28T05:15:00;54.72;;;18.52;;
20036;SDS011;10179;42.640;23.312;2023-02-28T05:17:27;44.28;;;15.48;;
20036;SDS011;10179;42.640;23.312;2023-02-28T05:19:53;61.08;;;16.90;;
20036;SDS011;10179;42.640;23.312;2023-02-28T05:22:18;54.65;;;17.27;;
20036;SDS011;10179;42.640;23.312;2023-02-28T05:24:44;49.55;;;16.65;;
20036;SDS011;10179;42.640;23.312;2023-02-28T05:27:09;43.63;;;16.88;;
20036;SDS011;10179;42.640;23.312;2023-02-28T05:29:35;43.35;;;15.73;;
20036;SDS011;10179;42.640;23.312;2023-02-28T05:32:06;36.60;;;15.32;;
20036;SDS011;10179;42.640;23.312;2023-02-28T05:34:36;95.55;;;35.70;;
20036;SDS011;10179;42.640;23.312;2023-02-28T05:37:02;44.83;;;18.75;;
20036;SDS011;10179;42.640;23.312;2023-02-28T05:39:27;49.13;;;18.38;;
20036;SDS011;10179;42.640;23.312;2023-02-28T05:41:53;40.67;;;16.65;;
20036;SDS011;10179;42.640;23.312;2023-02-28T05:44:18;39.55;;;14.75;;
20036;SDS011;10179;42.640;23.312;2023-02-28T05:46:43;39.20;;;15.25;;
20036;SDS011;10179;42.640;23.312;2023-02-28T05:49:09;33.67;;;14.82;;
20036;SDS011;10179;42.640;23.312;2023-02-28T05:51:34;38.30;;;14.43;;
20036;SDS011;10179;42.640;23.312;2023-02-28T05:54:01;29.40;;;12.63;;
20036;SDS011;10179;42.640;23.312;2023-02-28T05:56:27;37.75;;;14.63;;
20036;SDS011;10179;42.640;23.312;2023-02-28T05:58:54;35.10;;;13.95;;
20036;SDS011;10179;42.640;23.312;2023-02-28T06:01:41;36.08;;;13.98;;
20036;SDS011;10179;42.640;23.312;2023-02-28T06:04:13;45.13;;;17.77;;
20036;SDS011;10179;42.640;23.312;2023-02-28T06:06:43;37.85;;;17.70;;
20036;SDS011;10179;42.640;23.312;2023-02-28T06:09:09;59.63;;;21.73;;
20036;SDS011;10179;42.640;23.312;2023-02-28T06:11:35;45.78;;;18.75;;
20036;SDS011;10179;42.640;23.312;2023-02-28T06:14:01;34.40;;;16.98;;
20036;SDS011;10179;42.640;23.312;2023-02-28T06:16:27;36.55;;;18.02;;
20036;SDS011;10179;42.640;23.312;2023-02-28T06:18:54;40.15;;;17.65;;
20036;SDS011;10179;42.640;23.312;2023-02-28T06:21:22;39.35;;;17.45;;
20036;SDS011;10179;42.640;23.312;2023-02-28T06:23:47;38.15;;;16.75;;
20036;SDS011;10179;42.640;23.312;2023-02-28T06:26:13;36.28;;;16.98;;
20036;SDS011;10179;42.640;23.312;2023-02-28T06:28:39;43.25;;;17.00;;
20036;SDS011;10179;42.640;23.312;2023-02-28T06:31:11;38.03;;;16.25;;
20036;SDS011;10179;42.640;23.312;2023-02-28T06:33:39;41.95;;;17.33;;
20036;SDS011;10179;42.640;23.312;2023-02-28T06:36:05;39.60;;;17.38;;
20036;SDS011;10179;42.640;23.312;2023-02-28T06:38:31;51.83;;;21.90;;
20036;SDS011;10179;42.640;23.312;2023-02-28T06:40:58;41.33;;;18.15;;
20036;SDS011;10179;42.640;23.312;2023-02-28T06:43:25;34.20;;;16.48;;
20036;SDS011;10179;42.640;23.312;2023-02-28T06:45:57;36.30;;;16.77;;
20036;SDS011;10179;42.640;23.312;2023-02-28T06:48:23;33.00;;;15.68;;
20036;SDS011;10179;42.640;23.312;2023-02-28T06:50:50;38.05;;;17.98;;
20036;SDS011;10179;42.640;23.312;2023-02-28T06:53:16;44.42;;;18.05;;
20036;SDS011;10179;42.640;23.312;2023-02-28T06:55:41;42.53;;;19.50;;
20036;SDS011;10179;42.640;23.312;2023-02-28T06:58:06;39.08;;;17.92;;
20036;SDS011;10179;42.640;23.312;2023-02-28T07:00:44;39.47;;;18.55;;
20036;SDS011;10179;42.640;23.312;2023-02-28T07:03:10;38.38;;;18.67;;
20036;SDS011;10179;42.640;23.312;2023-02-28T07:05:37;39.17;;;18.75;;
20036;SDS011;10179;42.640;23.312;2023-02-28T07:08:03;37.30;;;19.48;;
20036;SDS011;10179;42.640;23.312;2023-02-28T07:10:30;35.70;;;16.67;;
20036;SDS011;10179;42.640;23.312;2023-02-28T07:12:56;33.03;;;16.48;;
20036;SDS011;10179;42.640;23.312;2023-02-28T07:15:22;40.53;;;18.15;;
20036;SDS011;10179;42.640;23.312;2023-02-28T07:17:47;39.78;;;18.00;;
20036;SDS011;10179;42.640;23.312;2023-02-28T07:20:12;37.63;;;18.13;;
20036;SDS011;10179;42.640;23.312;2023-02-28T07:22:38;38.72;;;17.08;;
20036;SDS011;10179;42.640;23.312;2023-02-28T07:25:04;36.47;;;17.23;;
20036;SDS011;10179;42.640;23.312;2023-02-28T07:27:30;37.10;;;17.02;;
20036;SDS011;10179;42.640;23.312;2023-02-28T07:29:56;47.50;;;21.38;;
20036;SDS011;10179;42.640;23.312;2023-02-28T07:32:21;53.20;;;22.98;;
20036;SDS011;10179;42.640;23.312;2023-02-28T07:34:47;50.22;;;21.25;;
20036;SDS011;10179;42.640;23.312;2023-02-28T07:37:13;52.40;;;22.13;;
20036;SDS011;10179;42.640;23.312;2023-02-28T07:39:39;45.63;;;22.15;;
20036;SDS011;10179;42.640;23.312;2023-02-28T07:42:07;52.83;;;22.60;;
20036;SDS011;10179;42.640;23.312;2023-02-28T07:44:36;49.33;;;22.67;;
20036;SDS011;10179;42.640;23.312;2023-02-28T07:47:05;50.40;;;22.63;;
20036;SDS011;10179;42.640;23.312;2023-02-28T07:49:37;49.55;;;21.08;;
20036;SDS011;10179;42.640;23.312;2023-02-28T07:52:03;44.42;;;21.65;;
20036;SDS011;10179;42.640;23.312;2023-02-28T07:54:30;47.53;;;21.80;;
20036;SDS011;10179;42.640;23.312;2023-02-28T07:56:55;50.03;;;21.30;;
20036;SDS011;10179;42.640;23.312;2023-02-28T07:59:21;60.03;;;22.50;;
20036;SDS011;10179;42.640;23.312;2023-02-28T08:01:46;49.83;;;22.52;;
20036;SDS011;10179;42.640;23.312;2023-02-28T08:04:14;58.03;;;24.50;;
20036;SDS011;10179;42.640;23.312;2023-02-28T08:06:39;49.80;;;23.08;;
20036;SDS011;10179;42.640;23.312;2023-02-28T08:09:05;56.60;;;24.48;;
20036;SDS011;10179;42.640;23.312;2023-02-28T08:11:31;52.15;;;21.92;;
20036;SDS011;10179;42.640;23.312;2023-02-28T08:13:56;51.78;;;22.48;;
20036;SDS011;10179;42.640;23.312;2023-02-28T08:16:21;58.63;;;24.25;;
20036;SDS011;10179;42.640;23.312;2023-02-28T08:18:53;51.78;;;24.83;;
20036;SDS011;10179;42.640;23.312;2023-02-28T08:21:19;49.08;;;21.73;;
20036;SDS011;10179;42.640;23.312;2023-02-28T08:23:49;56.10;;;22.05;;
20036;SDS011;10179;42.640;23.312;2023-02-28T08:26:15;54.65;;;22.48;;
20036;SDS011;10179;42.640;23.312;2023-02-28T08:28:44;54.45;;;22.00;;
20036;SDS011;10179;42.640;23.312;2023-02-28T08:31:10;54.75;;;21.55;;
20036;SDS011;10179;42.640;23.312;2023-02-28T08:33:38;50.22;;;21.23;;
20036;SDS011;10179;42.640;23.312;2023-02-28T08:36:05;49.38;;;21.50;;
20036;SDS011;10179;42.640;23.312;2023-02-28T08:38:31;41.25;;;19.45;;
20036;SDS011;10179;42.640;23.312;2023-02-28T08:40:57;47.47;;;20.13;;
20036;SDS011;10179;42.640;23.312;2023-02-28T08:43:30;63.22;;;21.65;;
20036;SDS011;10179;42.640;23.312;2023-02-28T08:45:56;53.40;;;21.35;;
20036;SDS011;10179;42.640;23.312;2023-02-28T08:48:24;45.17;;;20.73;;
20036;SDS011;10179;42.640;23.312;2023-02-28T08:51:11;47.92;;;21.30;;
20036;SDS011;10179;42.640;23.312;2023-02-28T08:53:39;54.50;;;22.50;;
20036;SDS011;10179;42.640;23.312;2023-02-28T08:56:08;52.58;;;22.63;;
20036;SDS011;10179;42.640;23.312;2023-02-28T08:58:36;62.78;;;27.00;;
20036;SDS011;10179;42.640;23.312;2023-02-28T09:01:35;68.28;;;28.10;;
20036;SDS011;10179;42.640;23.312;2023-02-28T09:03:54;69.93;;;27.77;;
20036;SDS011;10179;42.640;23.312;2023-02-28T09:06:21;75.90;;;27.50;;
20036;SDS011;10179;42.640;23.312;2023-02-28T09:08:48;67.53;;;25.95;;
20036;SDS011;10179;42.640;23.312;2023-02-28T09:11:14;66.50;;;27.02;;
20036;SDS011;10179;42.640;23.312;2023-02-28T09:13:40;68.45;;;28.00;;
20036;SDS011;10179;42.640;23.312;2023-02-28T09:16:07;73.35;;;27.25;;
20036;SDS011;10179;42.640;23.312;2023-02-28T09:18:35;79.47;;;28.55;;
20036;SDS011;10179;42.640;23.312;2023-02-28T09:21:05;69.78;;;26.50;;
20036;SDS011;10179;42.640;23.312;2023-02-28T09:23:32;67.72;;;26.80;;
20036;SDS011;10179;42.640;23.312;2023-02-28T09:25:58;73.57;;;26.73;;
20036;SDS011;10179;42.640;23.312;2023-02-28T09:28:23;65.53;;;26.88;;
20036;SDS011;10179;42.640;23.312;2023-02-28T09:30:51;67.78;;;26.30;;
20036;SDS011;10179;42.640;23.312;2023-02-28T09:33:18;61.20;;;25.35;;
20036;SDS011;10179;42.640;23.312;2023-02-28T09:35:47;57.53;;;25.13;;
20036;SDS011;10179;42.640;23.312;2023-02-28T09:38:14;59.47;;;23.50;;
20036;SDS011;10179;42.640;23.312;2023-02-28T09:41:00;55.58;;;23.25;;
20036;SDS011;10179;42.640;23.312;2023-02-28T09:43:35;62.97;;;23.92;;
20036;SDS011;10179;42.640;23.312;2023-02-28T09:46:26;58.42;;;23.52;;
20036;SDS011;10179;42.640;23.312;2023-02-28T09:49:06;52.60;;;23.48;;
20036;SDS011;10179;42.640;23.312;2023-02-28T09:54:18;55.35;;;22.35;;
20036;SDS011;10179;42.640;23.312;2023-02-28T09:56:48;55.50;;;26.10;;
20036;SDS011;10179;42.640;23.312;2023-02-28T10:04:54;46.83;;;20.48;;
20036;SDS011;10179;42.640;23.312;2023-02-28T10:10:44;50.85;;;19.45;;
20036;SDS011;10179;42.640;23.312;2023-02-28T10:15:58;50.67;;;22.08;;
20036;SDS011;10179;42.640;23.312;2023-02-28T10:18:37;52.33;;;21.33;;
20036;SDS011;10179;42.640;23.312;2023-02-28T10:21:55;54.83;;;21.65;;
20036;SDS011;10179;42.640;23.312;2023-02-28T10:27:05;43.00;;;15.20;;
20036;SDS011;10179;42.640;23.312;2023-02-28T10:29:39;24.80;;;10.23;;
20036;SDS011;10179;42.640;23.312;2023-02-28T10:32:08;28.45;;;10.52;;
20036;SDS011;10179;42.640;23.312;2023-02-28T10:34:39;20.90;;;9.43;;
20036;SDS011;10179;42.640;23.312;2023-02-28T10:37:04;28.10;;;10.02;;
20036;SDS011;10179;42.640;23.312;2023-02-28T10:39:34;23.67;;;9.93;;
20036;SDS011;10179;42.640;23.312;2023-02-28T10:42:02;29.73;;;10.55;;
20036;SDS011;10179;42.640;23.312;2023-02-28T10:44:28;27.25;;;9.82;;
20036;SDS011;10179;42.640;23.312;2023-02-28T10:46:54;24.33;;;9.98;;
20036;SDS011;10179;42.640;23.312;2023-02-28T10:49:24;27.02;;;8.45;;
20036;SDS011;10179;42.640;23.312;2023-02-28T10:51:52;25.42;;;8.25;;
20036;SDS011;10179;42.640;23.312;2023-02-28T10:59:51;26.35;;;7.15;;
20036;SDS011;10179;42.640;23.312;2023-02-28T11:02:33;16.05;;;6.35;;
20036;SDS011;10179;42.640;23.312;2023-02-28T11:05:00;17.40;;;5.93;;
20036;SDS011;10179;42.640;23.312;2023-02-28T11:07:25;19.35;;;6.30;;
20036;SDS011;10179;42.640;23.312;2023-02-28T11:09:53;20.85;;;7.05;;
20036;SDS011;10179;42.640;23.312;2023-02-28T11:12:23;18.58;;;6.13;;
20036;SDS011;10179;42.640;23.312;2023-02-28T11:14:49;20.63;;;6.47;;
20036;SDS011;10179;42.640;23.312;2023-02-28T11:17:26;20.17;;;5.93;;
20036;SDS011;10179;42.640;23.312;2023-02-28T11:19:54;16.42;;;5.65;;
20036;SDS011;10179;42.640;23.312;2023-02-28T11:22:23;19.83;;;6.82;;
20036;SDS011;10179;42.640;23.312;2023-02-28T11:24:53;17.33;;;6.50;;
20036;SDS011;10179;42.640;23.312;2023-02-28T11:29:54;22.05;;;6.78;;
20036;SDS011;10179;42.640;23.312;2023-02-28T11:32:20;21.90;;;7.20;;
20036;SDS011;10179;42.640;23.312;2023-02-28T11:37:34;21.63;;;9.27;;
20036;SDS011;10179;42.640;23.312;2023-02-28T11:40:00;18.60;;;8.93;;
20036;SDS011;10179;42.640;23.312;2023-02-28T11:48:38;22.15;;;7.70;;
20036;SDS011;10179;42.640;23.312;2023-02-28T11:51:21;21.77;;;7.03;;
20036;SDS011;10179;42.640;23.312;2023-02-28T11:53:55;17.48;;;7.03;;
20036;SDS011;10179;42.640;23.312;2023-02-28T12:06:56;25.63;;;7.60;;
20036;SDS011;10179;42.640;23.312;2023-02-28T12:10:29;22.75;;;8.38;;
20036;SDS011;10179;42.640;23.312;2023-02-28T12:28:31;20.50;;;8.93;;
20036;SDS011;10179;42.640;23.312;2023-02-28T12:31:18;24.13;;;8.13;;
20036;SDS011;10179;42.640;23.312;2023-02-28T12:33:50;23.48;;;8.30;;
20036;SDS011;10179;42.640;23.312;2023-02-28T12:36:19;22.77;;;7.65;;
20036;SDS011;10179;42.640;23.312;2023-02-28T12:39:00;20.48;;;8.63;;
20036;SDS011;10179;42.640;23.312;2023-02-28T12:44:17;20.90;;;7.57;;
20036;SDS011;10179;42.640;23.312;2023-02-28T12:46:51;26.25;;;8.32;;
20036;SDS011;10179;42.640;23.312;2023-02-28T12:49:33;20.58;;;7.90;;
20036;SDS011;10179;42.640;23.312;2023-02-28T12:52:04;19.90;;;7.68;;
20036;SDS011;10179;42.640;23.312;2023-02-28T12:54:42;16.95;;;8.18;;
20036;SDS011;10179;42.640;23.312;2023-02-28T13:10:45;21.08;;;7.45;;
20036;SDS011;10179;42.640;23.312;2023-02-28T13:13:18;25.25;;;8.02;;
20036;SDS011;10179;42.640;23.312;2023-02-28T13:16:03;24.90;;;8.80;;
20036;SDS011;10179;42.640;23.312;2023-02-28T13:18:33;16.00;;;7.05;;
20036;SDS011;10179;42.640;23.312;2023-02-28T13:21:10;19.23;;;7.38;;
20036;SDS011;10179;42.640;23.312;2023-02-28T13:23:58;22.98;;;8.15;;
20036;SDS011;10179;42.640;23.312;2023-02-28T13:28:58;20.58;;;7.85;;
20036;SDS011;10179;42.640;23.312;2023-02-28T13:32:46;20.55;;;7.45;;
20036;SDS011;10179;42.640;23.312;2023-02-28T13:39:50;14.95;;;7.13;;
20036;SDS011;10179;42.640;23.312;2023-02-28T13:47:31;18.52;;;6.68;;
20036;SDS011;10179;42.640;23.312;2023-02-28T13:50:44;25.52;;;7.55;;
20036;SDS011;10179;42.640;23.312;2023-02-28T14:01:14;19.77;;;8.27;;
20036;SDS011;10179;42.640;23.312;2023-02-28T14:06:30;21.02;;;6.95;;
20036;SDS011;10179;42.640;23.312;2023-02-28T14:08:59;20.98;;;7.60;;
20036;SDS011;10179;42.640;23.312;2023-02-28T14:11:38;18.52;;;7.22;;
20036;SDS011;10179;42.640;23.312;2023-02-28T14:14:06;19.73;;;6.85;;
20036;SDS011;10179;42.640;23.312;2023-02-28T14:16:46;17.75;;;6.47;;
20036;SDS011;10179;42.640;23.312;2023-02-28T14:38:13;13.43;;;6.03;;
20036;SDS011;10179;42.640;23.312;2023-02-28T14:40:43;15.07;;;5.75;;
20036;SDS011;10179;42.640;23.312;2023-02-28T14:43:27;15.20;;;5.93;;
20036;SDS011;10179;42.640;23.312;2023-02-28T14:45:57;17.38;;;5.88;;
20036;SDS011;10179;42.640;23.312;2023-02-28T14:48:24;16.65;;;6.50;;
20036;SDS011;10179;42.640;23.312;2023-02-28T14:50:53;19.92;;;6.63;;
20036;SDS011;10179;42.640;23.312;2023-02-28T14:53:22;13.88;;;5.47;;
20036;SDS011;10179;42.640;23.312;2023-02-28T14:55:50;18.23;;;6.05;;
20036;SDS011;10179;42.640;23.312;2023-02-28T14:58:27;17.60;;;5.88;;
20036;SDS011;10179;42.640;23.312;2023-02-28T15:00:56;16.73;;;6.47;;
20036;SDS011;10179;42.640;23.312;2023-02-28T15:03:32;14.40;;;6.07;;
20036;SDS011;10179;42.640;23.312;2023-02-28T15:06:00;15.00;;;5.28;;
20036;SDS011;10179;42.640;23.312;2023-02-28T15:08:39;22.98;;;6.60;;
20036;SDS011;10179;42.640;23.312;2023-02-28T15:11:05;28.00;;;6.35;;
20036;SDS011;10179;42.640;23.312;2023-02-28T15:13:46;26.05;;;7.10;;
20036;SDS011;10179;42.640;23.312;2023-02-28T15:16:57;27.73;;;8.15;;
20036;SDS011;10179;42.640;23.312;2023-02-28T15:19:07;21.10;;;8.65;;
20036;SDS011;10179;42.640;23.312;2023-02-28T15:21:45;19.63;;;8.00;;
20036;SDS011;10179;42.640;23.312;2023-02-28T15:24:22;24.30;;;9.13;;
20036;SDS011;10179;42.640;23.312;2023-02-28T15:27:09;20.75;;;9.02;;
20036;SDS011;10179;42.640;23.312;2023-02-28T15:29:46;32.65;;;9.93;;
20036;SDS011;10179;42.640;23.312;2023-02-28T15:32:26;19.90;;;7.72;;
20036;SDS011;10179;42.640;23.312;2023-02-28T15:34:51;17.88;;;6.68;;
20036;SDS011;10179;42.640;23.312;2023-02-28T15:42:42;25.30;;;8.65;;
20036;SDS011;10179;42.640;23.312;2023-02-28T15:45:55;20.30;;;7.75;;
20036;SDS011;10179;42.640;23.312;2023-02-28T15:48:23;28.27;;;9.00;;
20036;SDS011;10179;42.640;23.312;2023-02-28T15:51:37;17.80;;;8.02;;
20036;SDS011;10179;42.640;23.312;2023-02-28T15:56:24;16.02;;;7.05;;
20036;SDS011;10179;42.640;23.312;2023-02-28T15:58:55;15.75;;;7.13;;
20036;SDS011;10179;42.640;23.312;2023-02-28T16:03:51;16.60;;;6.65;;
20036;SDS011;10179;42.640;23.312;2023-02-28T16:06:32;14.80;;;6.38;;
20036;SDS011;10179;42.640;23.312;2023-02-28T16:08:58;14.77;;;6.72;;
20036;SDS011;10179;42.640;23.312;2023-02-28T16:11:23;13.73;;;6.65;;
20036;SDS011;10179;42.640;23.312;2023-02-28T16:13:49;10.52;;;5.90;;
20036;SDS011;10179;42.640;23.312;2023-02-28T16:16:20;16.83;;;6.50;;
20036;SDS011;10179;42.640;23.312;2023-02-28T16:18:49;23.48;;;6.05;;
20036;SDS011;10179;42.640;23.312;2023-02-28T16:21:14;13.45;;;6.22;;
20036;SDS011;10179;42.640;23.312;2023-02-28T16:23:40;13.43;;;6.10;;
20036;SDS011;10179;42.640;23.312;2023-02-28T16:26:06;16.90;;;6.38;;
20036;SDS011;10179;42.640;23.312;2023-02-28T16:28:33;15.35;;;6.40;;
20036;SDS011;10179;42.640;23.312;2023-02-28T16:31:02;12.10;;;5.55;;
20036;SDS011;10179;42.640;23.312;2023-02-28T16:33:29;13.23;;;5.55;;
20036;SDS011;10179;42.640;23.312;2023-02-28T16:35:55;12.60;;;5.35;;
20036;SDS011;10179;42.640;23.312;2023-02-28T16:38:20;10.55;;;5.47;;
20036;SDS011;10179;42.640;23.312;2023-02-28T16:40:48;8.85;;;4.80;;
20036;SDS011;10179;42.640;23.312;2023-02-28T16:43:16;13.43;;;6.53;;
20036;SDS011;10179;42.640;23.312;2023-02-28T16:45:44;12.38;;;6.25;;
20036;SDS011;10179;42.640;23.312;2023-02-28T16:48:11;12.50;;;6.00;;
20036;SDS011;10179;42.640;23.312;2023-02-28T16:50:39;13.15;;;6.03;;
20036;SDS011;10179;42.640;23.312;2023-02-28T16:53:05;16.75;;;5.88;;
20036;SDS011;10179;42.640;23.312;2023-02-28T16:55:30;13.23;;;5.40;;
20036;SDS011;10179;42.640;23.312;2023-02-28T16:57:57;10.50;;;5.47;;
20036;SDS011;10179;42.640;23.312;2023-02-28T17:00:27;10.88;;;5.65;;
20036;SDS011;10179;42.640;23.312;2023-02-28T17:02:54;9.93;;;5.65;;
20036;SDS011;10179;42.640;23.312;2023-02-28T17:05:20;9.82;;;5.07;;
20036;SDS011;10179;42.640;23.312;2023-02-28T17:07:46;8.50;;;4.95;;
20036;SDS011;10179;42.640;23.312;2023-02-28T17:10:13;12.73;;;5.75;;
20036;SDS011;10179;42.640;23.312;2023-02-28T17:12:41;11.73;;;5.22;;
20036;SDS011;10179;42.640;23.312;2023-02-28T17:15:06;12.45;;;5.05;;
20036;SDS011;10179;42.640;23.312;2023-02-28T17:17:34;9.45;;;5.55;;
20036;SDS011;10179;42.640;23.312;2023-02-28T17:19:59;15.77;;;5.25;;
20036;SDS011;10179;42.640;23.312;2023-02-28T17:22:24;13.88;;;5.35;;
20036;SDS011;10179;42.640;23.312;2023-02-28T17:24:51;11.48;;;4.88;;